Time;durP1;ratioP1;P1;durP2;ratioP2;P2;SDS_P1;SDS_P2;PMS_P1;PMS_P2;Temp;Humidity;BMP_temperature;BMP_pressure;BME280_temperature;BME280_humidity;BME280_pressure;Samples;Min_cycle;Max_cycle;Signal;HPM_P1;HPM_P2
2021/03/06 00:00:40;;;;;;;10.48;5.15;;;;;;;-1.30;92.26;100927.36;1717171;83;20959;-45
2021/03/06 00:03:08;;;;;;;15.20;6.28;;;;;;;-1.31;92.27;100920.97;1719724;83;21062;-47
2021/03/06 00:05:36;;;;;;;10.25;5.78;;;;;;;-1.32;92.32;100921.77;1719620;83;21027;-45
2021/03/06 00:08:05;;;;;;;9.53;4.92;;;;;;;-1.31;92.27;100924.77;1719740;83;20979;-46
2021/03/06 00:10:33;;;;;;;8.20;5.17;;;;;;;-1.34;92.24;100926.78;1719713;83;21211;-46
2021/03/06 00:13:02;;;;;;;9.18;5.15;;;;;;;-1.35;92.22;100924.20;1719674;83;20994;-47
2021/03/06 00:15:30;;;;;;;9.23;4.75;;;;;;;-1.37;92.18;100928.36;1719656;83;20982;-46
2021/03/06 00:17:58;;;;;;;8.15;5.17;;;;;;;-1.39;92.23;100927.41;1719629;83;20955;-45
2021/03/06 00:20:26;;;;;;;9.33;4.67;;;;;;;-1.40;92.21;100930.76;1719700;83;21026;-45
2021/03/06 00:22:54;;;;;;;7.55;4.65;;;;;;;-1.43;92.27;100931.52;1719652;83;21463;-46
2021/03/06 00:25:22;;;;;;;8.43;4.97;;;;;;;-1.45;92.28;100923.83;1719632;83;20915;-46
2021/03/06 00:27:50;;;;;;;7.15;4.45;;;;;;;-1.45;92.27;100922.56;1719622;83;20948;-47
2021/03/06 00:30:20;;;;;;;6.70;4.55;;;;;;;-1.44;92.27;100932.33;1719643;83;20943;-46
2021/03/06 00:32:48;;;;;;;9.93;4.33;;;;;;;-1.45;92.24;100929.33;1719676;83;21053;-46
2021/03/06 00:35:16;;;;;;;7.33;3.98;;;;;;;-1.48;92.26;100924.98;1719661;83;21827;-45
2021/03/06 00:37:44;;;;;;;5.75;3.45;;;;;;;-1.51;92.24;100921.06;1719661;83;21018;-46
2021/03/06 00:40:13;;;;;;;8.78;4.40;;;;;;;-1.52;92.17;100918.45;1719666;83;21495;-46
2021/03/06 00:42:40;;;;;;;6.85;3.25;;;;;;;-1.53;92.17;100919.27;1719620;82;21011;-44
2021/03/06 00:45:09;;;;;;;9.33;3.58;;;;;;;-1.57;92.14;100918.69;1719824;83;21034;-46
2021/03/06 00:47:37;;;;;;;7.20;3.35;;;;;;;-1.59;92.12;100922.45;1719804;83;21387;-44
2021/03/06 00:50:13;;;;;;;6.58;3.85;;;;;;;-1.61;92.09;100928.73;1719742;83;21026;-46
2021/03/06 00:52:42;;;;;;;;;;;;;;;-1.62;92.07;100932.49;1722410;83;21066;-45
2021/03/06 00:55:12;;;;;;;6.65;4.10;;;;;;;-1.64;92.07;100936.62;1719805;83;20120;-44
2021/03/06 00:57:41;;;;;;;11.18;3.35;;;;;;;-1.65;92.10;100935.77;1695578;83;21627;-44
2021/03/06 01:00:11;;;;;;;9.98;4.00;;;;;;;-1.65;92.07;100938.70;1700310;83;21385;-45
2021/03/06 01:02:40;;;;;;;7.12;4.10;;;;;;;-1.66;92.11;100935.69;1727208;83;21097;-45
2021/03/06 01:05:10;;;;;;;5.03;3.25;;;;;;;-1.66;92.12;100936.96;1727314;83;20994;-45
2021/03/06 01:07:38;;;;;;;4.50;3.17;;;;;;;-1.68;92.12;100931.84;1727328;83;21627;-45
2021/03/06 01:10:17;;;;;;;7.92;3.37;;;;;;;-1.67;92.10;100935.23;1727366;83;20959;-45
2021/03/06 01:12:45;;;;;;;6.00;3.72;;;;;;;-1.66;92.10;100937.84;1727243;83;21218;-45
2021/03/06 01:15:14;;;;;;;6.12;3.42;;;;;;;-1.67;92.09;100937.77;1727200;83;20931;-45
2021/03/06 01:17:42;;;;;;;6.53;3.45;;;;;;;-1.69;92.10;100939.38;1727371;83;21602;-45
2021/03/06 01:20:12;;;;;;;5.45;3.15;;;;;;;-1.69;92.10;100940.66;1727253;81;20954;-44
2021/03/06 01:22:40;;;;;;;5.33;3.30;;;;;;;-1.68;92.07;100939.84;1727309;81;21140;-44
2021/03/06 01:25:09;;;;;;;4.37;3.20;;;;;;;-1.68;92.08;100934.77;1727223;83;21364;-44
2021/03/06 01:27:37;;;;;;;5.15;2.77;;;;;;;-1.68;92.09;100934.77;1727351;83;21497;-44
2021/03/06 01:30:08;;;;;;;6.25;3.00;;;;;;;-1.70;92.06;100928.37;1727253;83;21034;-45
2021/03/06 01:32:36;;;;;;;5.97;3.08;;;;;;;-1.70;92.05;100931.30;1727231;83;21018;-44
2021/03/06 01:35:07;;;;;;;4.40;2.77;;;;;;;-1.71;92.06;100932.99;1727318;83;20967;-44
2021/03/06 01:37:39;;;;;;;4.87;2.95;;;;;;;-1.70;92.10;100938.92;1727125;83;21385;-44
2021/03/06 01:40:11;;;;;;;5.47;2.77;;;;;;;-1.74;92.09;100946.42;1727161;81;21080;-44
2021/03/06 01:42:39;;;;;;;3.12;2.50;;;;;;;-1.76;92.08;100946.77;1727297;81;20911;-45
2021/03/06 01:45:09;;;;;;;5.03;2.72;;;;;;;-1.77;92.11;100947.57;1727240;83;21021;-45
2021/03/06 01:47:37;;;;;;;4.50;2.80;;;;;;;-1.77;92.15;100953.03;1727356;83;21006;-45
2021/03/06 01:50:07;;;;;;;7.10;3.08;;;;;;;-1.80;92.19;100957.61;1727303;83;21156;-45
2021/03/06 01:52:36;;;;;;;3.72;2.55;;;;;;;-1.80;92.19;100954.19;1727219;83;21058;-45
2021/03/06 01:55:05;;;;;;;7.25;2.52;;;;;;;-1.80;92.21;100951.65;1727278;83;20935;-46
2021/03/06 01:57:33;;;;;;;5.30;3.00;;;;;;;-1.81;92.20;100955.87;1726131;83;21734;-45
2021/03/06 02:00:02;;;;;;;5.22;2.95;;;;;;;-1.81;92.20;100959.69;1719791;83;20959;-46
2021/03/06 02:02:32;;;;;;;4.92;3.05;;;;;;;-1.82;92.24;100965.56;1718510;82;21237;-45
2021/03/06 02:05:00;;;;;;;3.15;2.65;;;;;;;-1.83;92.18;100968.91;1693553;83;21034;-47
2021/03/06 02:07:28;;;;;;;3.58;2.50;;;;;;;-1.83;92.21;100970.18;1719811;83;20955;-45
2021/03/06 02:09:59;;;;;;;4.90;2.25;;;;;;;-1.83;92.18;100970.56;1719687;83;21026;-45
2021/03/06 02:13:10;;;;;;;2.65;2.42;;;;;;;-1.83;92.19;100971.45;1694178;83;21097;-44
2021/03/06 02:16:19;;;;;;;4.80;2.70;;;;;;;-1.85;92.19;100975.98;1719770;83;21371;-44
2021/03/06 02:18:55;;;;;;;4.08;2.55;;;;;;;-1.86;92.19;100974.25;1719753;83;21018;-45
2021/03/06 02:21:48;;;;;;;5.17;2.80;;;;;;;-1.85;92.23;100977.25;1693424;83;20967;-45
2021/03/06 02:24:43;;;;;;;5.25;2.67;;;;;;;-1.86;92.22;100976.80;1719745;83;21234;-44
2021/03/06 02:27:19;;;;;;;4.87;2.40;;;;;;;-1.86;92.18;100985.29;1719728;83;20999;-45
2021/03/06 02:30:08;;;;;;;5.08;2.80;;;;;;;-1.87;92.21;100987.36;1719704;83;21387;-45
2021/03/06 02:32:45;;;;;;;4.42;2.65;;;;;;;-1.86;92.22;100990.75;1717811;83;21050;-43
2021/03/06 02:35:18;;;;;;;4.37;2.80;;;;;;;-1.86;92.20;100997.09;1719774;83;21026;-44
2021/03/06 02:37:48;;;;;;;3.20;2.58;;;;;;;-1.89;92.19;100994.05;1719678;83;21344;-45
2021/03/06 02:40:16;;;;;;;3.72;2.37;;;;;;;-1.90;92.14;100991.90;1693491;83;21117;-43
2021/03/06 02:42:44;;;;;;;2.90;2.33;;;;;;;-1.91;92.12;100998.17;1719741;82;21211;-44
2021/03/06 02:45:13;;;;;;;4.92;2.60;;;;;;;-1.94;92.11;100997.66;1693467;83;20963;-45
2021/03/06 02:47:41;;;;;;;3.45;2.50;;;;;;;-1.94;92.07;101001.85;1719736;83;20967;-45
2021/03/06 02:50:10;;;;;;;2.90;2.60;;;;;;;-1.95;92.07;101012.42;1719772;83;22037;-43
2021/03/06 02:52:39;;;;;;;5.10;2.62;;;;;;;-1.93;92.06;101012.47;1719761;83;20990;-45
2021/03/06 02:55:09;;;;;;;3.62;2.20;;;;;;;-1.93;92.06;101016.27;1719774;83;21260;-43
2021/03/06 02:58:06;;;;;;;5.80;2.40;;;;;;;-1.96;92.03;101020.84;1719484;83;21070;-43
2021/03/06 03:00:46;;;;;;;3.75;2.60;;;;;;;-1.96;92.00;101030.11;1689688;83;20997;-44
2021/03/06 03:03:21;;;;;;;5.08;2.77;;;;;;;-1.98;91.98;101031.72;1719732;83;21608;-48
2021/03/06 03:06:09;;;;;;;9.20;3.12;;;;;;;-1.98;92.00;101038.06;1719700;83;20975;-44
2021/03/06 03:09:09;;;;;;;5.87;3.20;;;;;;;-1.99;92.01;101036.33;1719758;83;21377;-44
2021/03/06 03:12:06;;;;;;;4.37;3.12;;;;;;;-2.00;92.00;101044.36;1719603;83;21003;-44
2021/03/06 03:14:48;;;;;;;3.52;2.50;;;;;;;-2.02;91.99;101044.28;1719687;83;20955;-46
2021/03/06 03:17:28;;;;;;;9.05;2.92;;;;;;;-2.03;92.01;101034.94;1719656;82;21050;-45
2021/03/06 03:20:25;;;;;;;3.70;2.77;;;;;;;-2.01;92.02;101027.40;1847523;76;22246;-45
2021/03/06 03:23:15;;;;;;;5.50;3.02;;;;;;;-2.05;91.99;101034.00;1817831;79;20892;-44
2021/03/06 03:25:45;;;;;;;4.17;2.22;;;;;;;-2.06;91.94;101029.73;1813461;79;21365;-44
2021/03/06 03:28:13;;;;;;;5.62;2.83;;;;;;;-2.06;91.95;101036.08;1817813;79;21026;-44
2021/03/06 03:30:41;;;;;;;5.37;2.90;;;;;;;-2.09;91.90;101029.61;1817784;79;20931;-45
2021/03/06 03:33:10;;;;;;;7.97;3.27;;;;;;;-2.06;91.86;101041.53;1817757;79;21049;-45
2021/03/06 03:35:39;;;;;;;3.20;2.90;;;;;;;-2.08;91.85;101046.95;1817904;78;21460;-46
2021/03/06 03:38:08;;;;;;;5.90;2.70;;;;;;;-2.11;91.86;101043.02;1817754;78;21186;-45
2021/03/06 03:40:36;;;;;;;3.77;2.60;;;;;;;-2.11;91.84;101046.44;1817674;79;21006;-46
2021/03/06 03:43:04;;;;;;;5.25;3.12;;;;;;;-2.11;91.79;101051.52;1796951;79;20931;-45
2021/03/06 03:45:33;;;;;;;4.80;2.40;;;;;;;-2.11;91.78;101047.70;1785635;80;20974;-44
2021/03/06 03:48:01;;;;;;;4.78;3.40;;;;;;;-2.10;91.79;101051.98;1785634;80;20888;-46
2021/03/06 03:50:30;;;;;;;2.80;2.12;;;;;;;-2.11;91.75;101054.05;1785701;80;22261;-46
2021/03/06 03:52:58;;;;;;;2.85;2.08;;;;;;;-2.12;91.66;101056.12;1785519;79;20978;-46
2021/03/06 03:55:26;;;;;;;5.03;2.95;;;;;;;-2.12;91.64;101061.58;1785532;80;20974;-46
2021/03/06 03:57:54;;;;;;;5.28;3.27;;;;;;;-2.13;91.62;101059.45;1785491;80;21002;-47
2021/03/06 04:00:23;;;;;;;3.42;2.75;;;;;;;-2.12;91.59;101056.12;1785569;79;20930;-45
2021/03/06 04:02:51;;;;;;;5.47;3.08;;;;;;;-2.10;91.54;101050.70;1785648;79;21383;-45
2021/03/06 04:05:20;;;;;;;3.08;2.40;;;;;;;-2.11;91.53;101050.24;1785548;80;21002;-46
2021/03/06 04:07:51;;;;;;;5.35;3.15;;;;;;;-2.10;91.58;101053.25;1785557;80;20954;-46
2021/03/06 04:10:22;;;;;;;2.70;2.33;;;;;;;-2.09;91.50;101056.25;1785475;80;20891;-45
2021/03/06 04:12:50;;;;;;;3.55;2.45;;;;;;;-2.12;91.41;101053.58;1785611;79;21128;-43
2021/03/06 04:15:19;;;;;;;4.47;2.65;;;;;;;-2.15;91.45;101055.11;1785588;80;21335;-46
2021/03/06 04:17:48;;;;;;;12.20;2.62;;;;;;;-2.18;91.46;101055.83;1785422;79;21014;-45
2021/03/06 04:20:20;;;;;;;2.87;2.20;;;;;;;-2.17;91.48;101049.57;1785466;80;21022;-48
2021/03/06 04:22:47;;;;;;;4.25;2.30;;;;;;;-2.18;91.47;101055.45;1785590;80;20954;-45
2021/03/06 04:25:16;;;;;;;7.83;2.70;;;;;;;-2.19;91.48;101052.83;1785560;80;21010;-46
2021/03/06 04:27:44;;;;;;;3.02;2.52;;;;;;;-2.17;91.46;101052.49;1785650;80;21645;-45
2021/03/06 04:30:14;;;;;;;5.58;2.77;;;;;;;-2.17;91.48;101055.03;1785297;80;21029;-47
2021/03/06 04:32:41;;;;;;;5.83;3.00;;;;;;;-2.15;91.48;101053.42;1785009;80;21042;-45
2021/03/06 04:35:10;;;;;;;5.45;2.75;;;;;;;-2.15;91.45;101048.34;1784989;80;21018;-47
2021/03/06 04:37:38;;;;;;;24.72;3.70;;;;;;;-2.14;91.47;101051.38;1785038;80;20911;-45
2021/03/06 04:40:12;;;;;;;9.85;3.95;;;;;;;-2.13;91.44;101045.89;1784958;80;21350;-48
2021/03/06 04:42:40;;;;;;;13.25;2.85;;;;;;;-2.13;91.53;101044.23;1784957;79;21065;-45
2021/03/06 04:45:09;;;;;;;5.50;2.70;;;;;;;-2.10;91.47;101041.83;1785051;80;21556;-44
2021/03/06 04:47:45;;;;;;;4.50;2.55;;;;;;;-2.11;91.43;101033.75;1784957;80;20998;-44
2021/03/06 04:50:13;;;;;;;9.23;2.62;;;;;;;-2.10;91.44;101037.14;1785030;80;21062;-46
2021/03/06 04:52:41;;;;;;;30.00;4.40;;;;;;;-2.08;91.40;101039.34;1784993;80;21443;-46
2021/03/06 04:55:11;;;;;;;18.90;3.58;;;;;;;-2.06;91.33;101037.34;1784860;80;20958;-45
2021/03/06 04:57:38;;;;;;;75.85;5.25;;;;;;;-2.08;91.32;101036.41;1785013;79;21427;-47
2021/03/06 05:00:09;;;;;;;99.32;8.25;;;;;;;-2.10;91.32;101036.75;1784882;80;20967;-44
2021/03/06 05:02:37;;;;;;;311.20;18.48;;;;;;;-2.09;91.32;101042.68;1784959;80;21071;-47
2021/03/06 05:05:10;;;;;;;204.20;11.40;;;;;;;-2.09;91.33;101039.76;1784955;80;21206;-45
2021/03/06 05:07:38;;;;;;;88.42;6.60;;;;;;;-2.09;91.44;101041.41;1784891;80;21096;-47
2021/03/06 05:10:07;;;;;;;53.23;4.83;;;;;;;-2.08;91.44;101053.30;1784977;80;20943;-47
2021/03/06 05:12:36;;;;;;;40.08;4.50;;;;;;;-2.08;91.38;101061.79;1784947;80;21332;-44
2021/03/06 05:15:06;;;;;;;39.90;4.92;;;;;;;-2.08;91.37;101054.17;1784941;79;20935;-45
2021/03/06 05:17:33;;;;;;;21.25;3.12;;;;;;;-2.08;91.41;101055.44;1784949;79;21408;-45
2021/03/06 05:20:02;;;;;;;6.92;2.67;;;;;;;-2.06;91.43;101065.26;1784747;79;20955;-44
2021/03/06 05:22:30;;;;;;;7.15;2.45;;;;;;;-2.02;91.37;101070.08;1784929;80;21510;-47
2021/03/06 05:24:58;;;;;;;7.35;2.75;;;;;;;-2.01;91.33;101071.81;1784895;80;20982;-45
2021/03/06 05:27:27;;;;;;;5.42;2.45;;;;;;;-2.02;91.32;101076.00;1784441;80;21009;-43
2021/03/06 05:29:55;;;;;;;2.47;2.00;;;;;;;-1.99;91.35;101078.20;1784915;80;21363;-43
2021/03/06 05:32:23;;;;;;;2.22;2.02;;;;;;;-1.94;91.30;101076.72;1784907;80;21484;-45
2021/03/06 05:34:51;;;;;;;2.40;2.20;;;;;;;-1.87;91.24;101076.20;1784993;80;21057;-46
2021/03/06 05:37:19;;;;;;;4.12;2.15;;;;;;;-1.84;91.25;101080.13;1784927;80;21009;-45
2021/03/06 05:39:47;;;;;;;2.50;2.10;;;;;;;-1.80;91.13;101092.53;1784923;80;21029;-45
2021/03/06 05:42:15;;;;;;;4.17;2.20;;;;;;;-1.76;90.80;101110.93;1784875;79;21202;-45
2021/03/06 05:44:43;;;;;;;2.47;2.27;;;;;;;-1.77;90.71;101124.01;1784838;80;20958;-46
2021/03/06 05:47:13;;;;;;;4.28;2.47;;;;;;;-1.76;90.67;101129.97;1784917;80;20998;-46
2021/03/06 05:49:41;;;;;;;2.83;2.52;;;;;;;-1.77;90.71;101125.28;1784856;79;21496;-46
2021/03/06 05:52:09;;;;;;;5.33;3.50;;;;;;;-1.77;90.45;101127.81;1784959;80;20963;-46
2021/03/06 05:54:38;;;;;;;5.47;3.95;;;;;;;-1.78;90.07;101122.27;1754958;80;21309;-44
2021/03/06 05:57:06;;;;;;;5.15;3.90;;;;;;;-1.71;90.13;101125.06;1784870;80;20950;-45
2021/03/06 05:59:34;;;;;;;9.15;5.00;;;;;;;-1.65;89.93;101132.94;1754751;80;21010;-46
2021/03/06 06:02:02;;;;;;;7.78;4.60;;;;;;;-1.60;89.86;101138.69;1784911;80;21594;-45
2021/03/06 06:04:31;;;;;;;8.58;5.25;;;;;;;-1.54;89.84;101141.89;1784909;80;20990;-46
2021/03/06 06:07:01;;;;;;;7.25;5.22;;;;;;;-1.45;89.68;101150.30;1755112;80;21139;-46
2021/03/06 06:09:32;;;;;;;12.40;5.55;;;;;;;-1.41;89.65;101153.82;1784853;80;20955;-45
2021/03/06 06:12:00;;;;;;;9.35;5.85;;;;;;;-1.37;89.39;101151.48;1754833;80;20986;-45
2021/03/06 06:14:30;;;;;;;14.70;5.72;;;;;;;-1.32;89.12;101161.84;1783237;80;20994;-45
2021/03/06 06:16:58;;;;;;;11.70;6.33;;;;;;;-1.26;89.13;101162.09;1784942;80;21038;-46
2021/03/06 06:19:28;;;;;;;14.28;5.95;;;;;;;-1.18;89.01;101165.80;1789471;79;21431;-44
2021/03/06 06:21:56;;;;;;;7.50;4.72;;;;;;;-1.09;89.01;101170.41;1747762;79;20957;-45
2021/03/06 06:24:24;;;;;;;13.13;5.85;;;;;;;-0.97;88.52;101170.45;1799415;79;20998;-45
2021/03/06 06:26:56;;;;;;;9.23;4.90;;;;;;;-0.88;88.42;101175.89;1799396;79;21015;-44
2021/03/06 06:29:48;;;;;;;11.38;5.50;;;;;;;-0.80;88.35;101179.59;1799466;79;20958;-43
2021/03/06 06:32:16;;;;;;;12.33;4.75;;;;;;;-0.75;87.83;101183.22;1799196;79;21379;-44
2021/03/06 06:35:06;;;;;;;9.05;4.55;;;;;;;-0.71;87.41;101179.09;1799340;79;21018;-46
2021/03/06 06:37:34;;;;;;;5.55;4.20;;;;;;;-0.69;87.00;101174.94;1799539;79;21555;-44
2021/03/06 06:40:21;;;;;;;6.42;4.60;;;;;;;-0.74;86.08;101178.59;1799352;79;20899;-44
2021/03/06 06:42:48;;;;;;;8.63;4.87;;;;;;;-0.79;85.82;101172.85;1799464;78;21546;-44
2021/03/06 06:45:16;;;;;;;10.03;4.80;;;;;;;-0.80;85.21;101180.02;1799435;79;21330;-45
2021/03/06 06:47:47;;;;;;;9.83;4.78;;;;;;;-0.80;85.17;101185.95;1799370;79;20997;-45
2021/03/06 06:50:29;;;;;;;6.95;4.05;;;;;;;-0.81;84.92;101188.45;1799423;79;21591;-45
2021/03/06 06:53:05;;;;;;;8.10;3.90;;;;;;;-0.81;84.45;101177.86;1847633;76;23381;-45
2021/03/06 06:55:39;;;;;;;5.22;3.67;;;;;;;-0.84;84.05;101187.06;1817814;79;21026;-43
2021/03/06 06:58:07;;;;;;;6.62;3.50;;;;;;;-0.78;84.25;101193.66;1817858;78;21193;-45
2021/03/06 07:00:35;;;;;;;6.95;3.42;;;;;;;-0.78;83.06;101190.69;1817805;79;20990;-46
2021/03/06 07:03:05;;;;;;;2.95;2.40;;;;;;;-0.78;82.80;101186.88;1817806;79;21053;-44
2021/03/06 07:05:39;;;;;;;3.40;2.60;;;;;;;-0.74;82.73;101187.88;1817878;79;20923;-46
2021/03/06 07:08:10;;;;;;;3.17;2.58;;;;;;;-0.71;81.90;101190.96;1817948;79;21578;-45
2021/03/06 07:10:41;;;;;;;2.60;1.82;;;;;;;-0.65;81.48;101196.28;1815843;79;21197;-44
2021/03/06 07:13:10;;;;;;;3.20;2.20;;;;;;;-0.55;81.10;101188.19;1817855;79;21050;-44
2021/03/06 07:15:39;;;;;;;2.60;2.37;;;;;;;-0.55;79.94;101193.70;1817921;79;20998;-43
2021/03/06 07:18:17;;;;;;;3.27;2.30;;;;;;;-0.56;79.45;101194.52;1817724;79;21013;-46
2021/03/06 07:20:45;;;;;;;4.00;2.35;;;;;;;-0.53;79.38;101195.90;1788556;79;21002;-44
2021/03/06 07:23:20;;;;;;;2.10;1.90;;;;;;;-0.58;78.95;101202.06;1817812;79;21200;-44
2021/03/06 07:25:57;;;;;;;6.53;2.37;;;;;;;-0.64;78.38;101201.41;1817870;79;21539;-45
2021/03/06 07:28:26;;;;;;;4.85;2.42;;;;;;;-0.78;78.23;101194.93;1817777;79;20923;-44
2021/03/06 07:30:55;;;;;;;6.22;2.25;;;;;;;-0.89;78.35;101198.31;1817729;79;20943;-44
2021/03/06 07:33:23;;;;;;;2.15;1.82;;;;;;;-0.90;78.52;101202.93;1817782;78;20978;-45
2021/03/06 07:35:52;;;;;;;2.92;2.12;;;;;;;-0.98;78.49;101204.30;1817798;79;21190;-44
2021/03/06 07:38:22;;;;;;;2.37;1.95;;;;;;;-1.04;78.69;101203.64;1817701;79;20971;-45
2021/03/06 07:40:58;;;;;;;2.40;1.65;;;;;;;-1.00;79.15;101209.73;1817686;79;20978;-44
2021/03/06 07:43:29;;;;;;;3.77;1.92;;;;;;;-0.93;79.64;101208.75;1792955;79;21582;-44
2021/03/06 07:45:58;;;;;;;3.50;1.98;;;;;;;-0.80;79.46;101211.38;1785555;79;21010;-44
2021/03/06 07:48:34;;;;;;;2.30;1.60;;;;;;;-0.76;78.77;101209.84;1784929;80;22404;-43
2021/03/06 07:51:02;;;;;;;1.67;1.42;;;;;;;-0.70;78.81;101208.80;1785396;79;21033;-43
2021/03/06 07:53:30;;;;;;;2.08;1.30;;;;;;;-0.64;77.99;101214.13;1698414;82;20978;-44
2021/03/06 07:55:58;;;;;;;3.70;1.47;;;;;;;-0.61;77.94;101213.01;1732708;82;21012;-44
2021/03/06 07:58:26;;;;;;;2.50;1.40;;;;;;;-0.54;77.65;101216.64;1732628;80;20982;-44
2021/03/06 08:00:57;;;;;;;1.72;1.50;;;;;;;-0.49;76.08;101219.37;1782705;80;21203;-45
2021/03/06 08:03:34;;;;;;;3.30;1.60;;;;;;;-0.42;76.35;101217.52;1781032;80;21512;-45
2021/03/06 08:06:08;;;;;;;2.07;1.30;;;;;;;-0.21;76.72;101220.43;1785353;80;20903;-45
2021/03/06 08:08:52;;;;;;;1.40;1.30;;;;;;;0.03;75.94;101217.07;1783859;80;20911;-45
2021/03/06 08:11:30;;;;;;;2.00;1.30;;;;;;;0.17;75.64;101219.73;1785073;80;21607;-43
2021/03/06 08:16:29;;;;;;;5.90;1.30;;;;;;;0.26;73.24;101225.15;1776990;79;22704;-45
2021/03/06 08:19:04;;;;;;;3.12;1.47;;;;;;;0.26;72.26;101226.84;1749536;82;21011;-43
2021/03/06 08:21:39;;;;;;;1.40;1.30;;;;;;;0.34;72.57;101229.64;1745817;82;21164;-45
2021/03/06 08:24:18;;;;;;;5.05;1.47;;;;;;;0.39;71.56;101232.83;1749452;82;21493;-44
2021/03/06 08:27:08;;;;;;;2.52;1.60;;;;;;;0.46;71.84;101249.59;1749425;82;20979;-45
2021/03/06 08:29:46;;;;;;;2.70;1.85;;;;;;;0.56;71.56;101244.03;1748021;82;21027;-45
2021/03/06 08:32:32;;;;;;;2.17;1.40;;;;;;;0.66;71.12;101240.13;1749165;81;21595;-44
2021/03/06 08:35:18;;;;;;;5.53;1.77;;;;;;;0.56;70.10;101249.98;1749416;82;21193;-47
2021/03/06 08:37:49;;;;;;;3.72;1.40;;;;;;;0.49;69.68;101243.33;1749418;81;21011;-45
2021/03/06 08:40:23;;;;;;;2.20;1.42;;;;;;;0.56;70.43;101252.53;1749400;82;21329;-44
2021/03/06 08:42:53;;;;;;;4.80;2.02;;;;;;;0.66;69.16;101247.78;1733861;82;21038;-45
2021/03/06 08:45:29;;;;;;;4.80;1.50;;;;;;;0.78;67.55;101253.71;1719550;83;21165;-45
2021/03/06 08:48:02;;;;;;;4.75;2.00;;;;;;;0.92;66.67;101256.30;1719695;83;21493;-45
2021/03/06 08:50:33;;;;;;;1.47;1.37;;;;;;;1.03;66.40;101260.50;1719562;83;21238;-44
2021/03/06 08:53:04;;;;;;;3.45;1.57;;;;;;;1.14;65.82;101254.48;1719644;83;21014;-44
2021/03/06 08:55:34;;;;;;;2.47;1.40;;;;;;;1.26;65.11;101266.77;1719582;83;21615;-44
2021/03/06 08:58:04;;;;;;;3.65;1.80;;;;;;;1.33;66.40;101272.95;1719613;83;21069;-47
2021/03/06 09:00:36;;;;;;;5.03;2.20;;;;;;;1.25;63.99;101272.27;1719593;83;21387;-45
2021/03/06 09:03:19;;;;;;;1.70;1.30;;;;;;;1.17;62.41;101280.09;1719466;83;21010;-45
2021/03/06 09:05:53;;;;;;;1.90;1.62;;;;;;;1.11;63.32;101278.19;1719577;83;21054;-46
2021/03/06 09:08:25;;;;;;;1.30;1.20;;;;;;;1.20;63.40;101277.63;1719640;83;25650;-45
2021/03/06 09:10:56;;;;;;;3.33;1.65;;;;;;;1.37;64.94;101275.62;1719605;83;20975;-45
2021/03/06 09:13:25;;;;;;;1.47;1.20;;;;;;;1.51;65.02;101276.50;1719695;83;22305;-46
2021/03/06 09:16:05;;;;;;;2.72;1.60;;;;;;;1.39;64.02;101288.06;1709304;82;21027;-45
2021/03/06 09:18:38;;;;;;;5.10;1.52;;;;;;;1.35;64.36;101288.75;1706866;83;21573;-45
2021/03/06 09:21:09;;;;;;;2.75;1.90;;;;;;;1.49;62.57;101286.64;1706812;83;21599;-45
2021/03/06 09:23:44;;;;;;;4.00;1.50;;;;;;;1.50;62.04;101297.31;1705784;84;21059;-45
2021/03/06 09:26:18;;;;;;;1.35;1.22;;;;;;;1.54;62.33;101299.56;1706651;83;22261;-46
2021/03/06 09:28:47;;;;;;;6.33;1.50;;;;;;;1.48;62.66;101308.30;1706257;84;21517;-45
2021/03/06 09:31:26;;;;;;;5.08;1.50;;;;;;;1.25;62.04;101310.95;1706267;84;20920;-44
2021/03/06 09:33:55;;;;;;;3.10;1.47;;;;;;;0.99;61.92;101314.77;1706186;83;21027;-45
2021/03/06 09:36:26;;;;;;;2.65;1.67;;;;;;;0.68;63.20;101316.23;1706225;84;20960;-45
2021/03/06 09:38:57;;;;;;;2.17;1.30;;;;;;;0.64;63.70;101318.22;1686497;84;21213;-44
2021/03/06 09:41:37;;;;;;;4.25;1.77;;;;;;;0.96;62.04;101305.73;1706244;84;20936;-44
2021/03/06 09:44:06;;;;;;;2.77;1.30;;;;;;;1.12;63.50;101314.35;1706236;84;21501;-44
2021/03/06 09:46:35;;;;;;;3.42;1.70;;;;;;;1.34;61.75;101316.36;1706211;84;21011;-44
2021/03/06 09:49:06;;;;;;;3.90;1.62;;;;;;;1.34;60.19;101322.73;1706396;84;21619;-46
2021/03/06 09:51:52;;;;;;;2.17;1.40;;;;;;;1.07;59.95;101323.95;1706235;82;21381;-44
2021/03/06 09:54:22;;;;;;;4.00;1.50;;;;;;;0.89;59.01;101328.02;1706266;83;21161;-46
2021/03/06 09:57:02;;;;;;;1.72;1.35;;;;;;;0.86;59.87;101328.34;1706388;82;21564;-46
2021/03/06 09:59:37;;;;;;;2.20;1.30;;;;;;;0.98;58.21;101329.60;1706253;84;20940;-44
2021/03/06 10:02:12;;;;;;;4.20;1.45;;;;;;;0.98;58.98;101330.88;1706268;84;21054;-45
2021/03/06 10:04:46;;;;;;;2.53;1.77;;;;;;;1.03;57.77;101343.38;1706499;84;21224;-45
2021/03/06 10:07:16;;;;;;;6.62;1.98;;;;;;;1.05;56.76;101331.55;1706214;84;21548;-45
2021/03/06 10:09:43;;;;;;;5.10;1.47;;;;;;;0.86;56.59;101330.04;1706261;83;21220;-45
2021/03/06 10:12:15;;;;;;;5.17;1.25;;;;;;;0.83;56.95;101335.88;1706260;84;20972;-45
2021/03/06 10:14:48;;;;;;;2.12;1.55;;;;;;;1.07;56.74;101350.73;1706184;84;21107;-43
2021/03/06 10:17:24;;;;;;;3.33;1.52;;;;;;;1.25;56.11;101333.92;1706252;84;21391;-43
2021/03/06 10:19:53;;;;;;;2.40;1.30;;;;;;;1.26;55.70;101348.41;1705872;84;21050;-44
2021/03/06 10:22:21;;;;;;;5.42;1.40;;;;;;;1.11;56.38;101334.72;1706249;84;21165;-42
2021/03/06 10:24:59;;;;;;;3.70;1.32;;;;;;;1.15;55.11;101337.84;1706213;84;21035;-43
2021/03/06 10:27:48;;;;;;;3.55;1.10;;;;;;;1.07;55.21;101336.71;1706252;83;20999;-44
2021/03/06 10:30:25;;;;;;;4.20;1.50;;;;;;;1.06;55.40;101338.80;1706221;84;21046;-44
2021/03/06 10:32:56;;;;;;;2.80;0.95;;;;;;;1.03;55.84;101335.73;1706215;82;21051;-46
2021/03/06 10:35:42;;;;;;;2.85;1.27;;;;;;;1.03;55.73;101339.55;1706217;84;20960;-44
2021/03/06 10:38:26;;;;;;;1.47;1.07;;;;;;;0.94;53.35;101337.54;1706453;84;21047;-44
2021/03/06 10:40:59;;;;;;;1.10;1.07;;;;;;;0.90;54.15;101337.40;1706210;83;20947;-46
2021/03/06 10:43:43;;;;;;;2.25;1.07;;;;;;;0.89;54.63;101333.12;1706192;82;21374;-45
2021/03/06 10:46:18;;;;;;;1.77;1.12;;;;;;;0.92;54.53;101326.84;1706174;84;21058;-44
2021/03/06 10:49:00;;;;;;;2.15;1.20;;;;;;;1.12;55.45;101334.76;1706299;84;21250;-44
2021/03/06 10:51:52;;;;;;;1.47;1.25;;;;;;;1.29;52.50;101318.78;1706125;84;20975;-46
2021/03/06 10:54:22;;;;;;;0.78;0.78;;;;;;;1.07;53.21;101331.19;1706191;84;21003;-45
2021/03/06 10:57:05;;;;;;;6.92;1.05;;;;;;;0.75;52.38;101329.66;1706204;84;21290;-46
2021/03/06 10:59:34;;;;;;;1.40;1.30;;;;;;;0.57;53.03;101320.52;1706136;83;20999;-45
2021/03/06 11:02:05;;;;;;;3.40;1.10;;;;;;;0.57;54.55;101317.12;1706169;83;20943;-46
2021/03/06 11:04:36;;;;;;;2.00;1.17;;;;;;;0.63;55.74;101313.91;1706232;84;20995;-44
2021/03/06 11:07:06;;;;;;;2.52;1.32;;;;;;;0.76;54.43;101319.92;1706287;83;21580;-45
2021/03/06 11:09:37;;;;;;;3.22;1.10;;;;;;;0.95;55.35;101330.35;1706119;84;21015;-44
2021/03/06 11:12:30;;;;;;;1.55;1.20;;;;;;;1.19;54.70;101325.64;1706155;84;20972;-46
2021/03/06 11:15:15;;;;;;;1.72;1.35;;;;;;;1.37;52.74;101325.39;1706065;83;21094;-46
2021/03/06 11:17:45;;;;;;;1.72;1.10;;;;;;;1.35;52.20;101330.84;1706121;84;21050;-45
2021/03/06 11:20:16;;;;;;;2.83;1.17;;;;;;;1.23;51.88;101330.45;1706260;84;20995;-44
2021/03/06 11:22:44;;;;;;;3.05;1.05;;;;;;;1.11;52.51;101328.34;1706111;82;21385;-46
2021/03/06 11:25:13;;;;;;;1.25;1.02;;;;;;;1.14;52.24;101328.45;1706115;84;21005;-43
2021/03/06 11:27:56;;;;;;;1.70;1.05;;;;;;;1.27;51.17;101329.73;1706132;84;21046;-43
2021/03/06 11:30:33;;;;;;;1.27;1.10;;;;;;;1.41;52.18;101334.02;1706159;84;20920;-44
2021/03/06 11:33:03;;;;;;;1.90;1.32;;;;;;;1.64;51.17;101324.98;1706220;84;21031;-44
2021/03/06 11:35:32;;;;;;;1.80;1.27;;;;;;;1.75;52.11;101325.33;1706104;84;21371;-47
2021/03/06 11:38:00;;;;;;;2.77;1.25;;;;;;;1.82;51.20;101334.91;1706149;84;21536;-46
2021/03/06 11:40:30;;;;;;;4.33;1.10;;;;;;;1.59;49.73;101336.30;1706146;84;20947;-47
2021/03/06 11:42:58;;;;;;;1.62;1.12;;;;;;;1.46;50.70;101340.56;1706093;82;20960;-44
2021/03/06 11:45:27;;;;;;;1.20;1.10;;;;;;;1.41;48.03;101333.62;1706138;84;21074;-43
2021/03/06 11:47:56;;;;;;;3.60;0.95;;;;;;;1.36;47.60;101332.58;1706178;84;21380;-45
2021/03/06 11:50:27;;;;;;;3.22;1.90;;;;;;;1.41;48.65;101335.30;1706050;84;20956;-43
2021/03/06 11:52:55;;;;;;;1.00;1.00;;;;;;;1.46;47.91;101341.41;1706203;84;21647;-44